createdAt,value
2023-04-23T00:02:04.491Z,99958.22
2023-04-23T00:04:36.993Z,99998.59
2023-04-23T00:07:07.520Z,99999.19
2023-04-23T00:09:40.270Z,99995.00
2023-04-23T00:12:14.610Z,99990.50
2023-04-23T00:14:45.112Z,99990.50
2023-04-23T00:17:15.094Z,99996.38
2023-04-23T00:19:46.697Z,99992.97
2023-04-23T00:22:20.455Z,99977.44
2023-04-23T00:24:53.779Z,99984.88
2023-04-23T00:27:26.631Z,99956.50
2023-04-23T00:29:56.928Z,99983.91
2023-04-23T00:32:27.534Z,99976.69
2023-04-23T00:35:03.547Z,99978.81
2023-04-23T00:37:33.826Z,99979.59
2023-04-23T00:40:32.356Z,99980.56
2023-04-23T00:43:06.011Z,99977.06
2023-04-23T00:45:36.821Z,99974.34
2023-04-23T00:48:10.064Z,99970.06
2023-04-23T00:50:40.547Z,99979.31
2023-04-23T00:53:10.793Z,99980.97
2023-04-23T00:55:42.004Z,99975.22
2023-04-23T00:58:17.213Z,99976.00
2023-04-23T01:00:51.828Z,99968.09
2023-04-23T01:03:22.972Z,99973.94
2023-04-23T01:05:55.578Z,99969.66
2023-04-23T01:08:28.101Z,99959.81
2023-04-23T01:11:01.370Z,99970.19
2023-04-23T01:13:34.403Z,99963.91
2023-04-23T01:16:04.878Z,99955.25
2023-04-23T01:18:38.034Z,99994.66
2023-04-23T01:21:08.392Z,99985.31
2023-04-23T01:23:50.439Z,99996.47
2023-04-23T01:26:21.518Z,99974.19
2023-04-23T01:28:51.640Z,100000.56
2023-04-23T01:31:22.683Z,100004.22
2023-04-23T01:33:55.369Z,100004.47
2023-04-23T01:36:33.451Z,100002.38
2023-04-23T01:39:06.582Z,99999.84
2023-04-23T01:41:39.984Z,100000.75
2023-04-23T01:44:10.857Z,99995.41
2023-04-23T01:46:42.069Z,100002.75
2023-04-23T01:49:13.894Z,100003.22
2023-04-23T01:51:48.162Z,100013.44
2023-04-23T01:54:24.167Z,100003.69
2023-04-23T01:56:56.054Z,100009.97
2023-04-23T01:59:28.088Z,100010.28
2023-04-23T02:01:58.444Z,100005.59
2023-04-23T02:04:29.289Z,100007.78
2023-04-23T02:07:06.246Z,100019.25
2023-04-23T02:09:42.152Z,100013.94
2023-04-23T02:12:12.769Z,99996.38
2023-04-23T02:14:43.096Z,100014.53
2023-04-23T02:17:14.022Z,100020.56
2023-04-23T02:19:44.286Z,100020.56
2023-04-23T02:22:17.846Z,100023.44
2023-04-23T02:24:58.605Z,100015.41
2023-04-23T02:27:28.979Z,100012.13
2023-04-23T02:30:00.180Z,100022.88
2023-04-23T02:32:30.874Z,100017.53
2023-04-23T02:35:02.288Z,100009.16
2023-04-23T02:37:33.774Z,100024.78
2023-04-23T02:40:36.537Z,100031.56
2023-04-23T02:43:27.465Z,100028.19
2023-04-23T02:45:57.803Z,100028.50
2023-04-23T02:48:30.145Z,100024.97
2023-04-23T02:51:00.287Z,100017.97
2023-04-23T02:53:30.975Z,100023.78
2023-04-23T02:56:05.691Z,100032.69
2023-04-23T02:58:36.981Z,100024.13
2023-04-23T03:01:08.515Z,100025.75
2023-04-23T03:03:39.005Z,100028.19
2023-04-23T03:06:12.064Z,100024.22
2023-04-23T03:08:42.156Z,100037.06
2023-04-23T03:11:15.031Z,100037.63
2023-04-23T03:13:57.116Z,100043.22
2023-04-23T03:16:27.593Z,100046.97
2023-04-23T03:18:57.832Z,100043.44
2023-04-23T03:21:28.193Z,100050.47
2023-04-23T03:24:01.636Z,100040.59
2023-04-23T03:26:34.845Z,100008.81
2023-04-23T03:29:09.206Z,100043.00
2023-04-23T03:31:41.227Z,100040.91
2023-04-23T03:34:13.485Z,100044.53
2023-04-23T03:36:44.923Z,100051.09
2023-04-23T03:39:18.877Z,100051.09
2023-04-23T03:42:22.989Z,100059.47
2023-04-23T03:44:57.941Z,100055.06
2023-04-23T03:47:28.004Z,100055.31
2023-04-23T03:50:00.388Z,100056.63
2023-04-23T03:52:31.954Z,100059.03
2023-04-23T03:55:02.523Z,100054.41
2023-04-23T03:57:40.524Z,100059.03
2023-04-23T04:00:22.426Z,100064.72
2023-04-23T04:02:52.928Z,100071.53
2023-04-23T04:05:25.372Z,100068.25
2023-04-23T04:07:57.552Z,100077.34
2023-04-23T04:10:31.256Z,100076.91
2023-04-23T04:13:07.216Z,100089.97
2023-04-23T04:15:42.985Z,100087.00
2023-04-23T04:18:17.034Z,100090.38
2023-04-23T04:20:47.178Z,100096.09
2023-04-23T04:23:17.192Z,100090.94
2023-04-23T04:25:47.447Z,100094.06
2023-04-23T04:28:27.419Z,100098.13
2023-04-23T04:30:58.001Z,100090.75
2023-04-23T04:33:33.224Z,100100.88
2023-04-23T04:36:03.796Z,100103.16
2023-04-23T04:38:33.884Z,100103.69
2023-04-23T04:41:06.601Z,100101.47
2023-04-23T04:43:47.021Z,100114.13
2023-04-23T04:46:20.204Z,100111.59
2023-04-23T04:48:52.616Z,100115.53
2023-04-23T04:51:23.146Z,100115.69
2023-04-23T04:53:53.256Z,100110.00
2023-04-23T04:56:24.372Z,100122.50
2023-04-23T04:58:57.045Z,100117.72
2023-04-23T05:01:27.546Z,100125.97
2023-04-23T05:03:59.119Z,100120.25
2023-04-23T05:06:30.125Z,100134.28
2023-04-23T05:09:04.473Z,100133.94
2023-04-23T05:11:37.263Z,100132.69
2023-04-23T05:14:14.754Z,100140.56
2023-04-23T05:16:53.150Z,100135.94
2023-04-23T05:19:26.396Z,100142.38
2023-04-23T05:21:56.969Z,100135.63
2023-04-23T05:24:31.131Z,100133.94
2023-04-23T05:27:01.861Z,100132.78
2023-04-23T05:29:34.477Z,100131.06
2023-04-23T05:32:04.879Z,100136.13
2023-04-23T05:34:34.874Z,100128.31
2023-04-23T05:37:05.145Z,100125.56
2023-04-23T05:39:35.109Z,100131.78
2023-04-23T05:42:09.118Z,100124.56
2023-04-23T05:44:42.789Z,100124.47
2023-04-23T05:47:15.459Z,100132.47
2023-04-23T05:52:37.573Z,100140.47
2023-04-23T05:55:12.762Z,100144.75
2023-04-23T05:57:43.289Z,100155.03
2023-04-23T06:00:17.246Z,100151.03
2023-04-23T06:02:48.118Z,100158.66
2023-04-23T06:05:22.226Z,100158.44
2023-04-23T06:07:52.657Z,100159.97
2023-04-23T06:10:23.119Z,100152.69
2023-04-23T06:12:55.604Z,100161.97
2023-04-23T06:15:37.549Z,100158.56
2023-04-23T06:18:08.106Z,100164.34
2023-04-23T06:20:39.938Z,100161.59
2023-04-23T06:23:09.956Z,100157.78
2023-04-23T06:25:41.023Z,100159.28
2023-04-23T06:28:11.063Z,100133.50
2023-04-23T06:30:57.696Z,100146.91
2023-04-23T06:33:28.073Z,100153.56
2023-04-23T06:35:58.310Z,100147.47
2023-04-23T06:38:28.393Z,100143.41
2023-04-23T06:40:59.056Z,100149.88
2023-04-23T06:43:29.172Z,100140.19
2023-04-23T06:46:34.536Z,100139.06
2023-04-23T06:49:05.124Z,100148.25
2023-04-23T06:51:35.372Z,100139.84
2023-04-23T06:54:06.001Z,100143.94
2023-04-23T06:56:36.137Z,100142.28
2023-04-23T06:59:07.004Z,100140.63
2023-04-23T07:01:45.453Z,100150.34
2023-04-23T07:04:16.120Z,100143.56
2023-04-23T07:06:46.307Z,100147.31
2023-04-23T07:09:19.005Z,100133.56
2023-04-23T07:11:53.402Z,100126.31
2023-04-23T07:14:23.552Z,100105.03
2023-04-23T07:16:58.343Z,100129.47
2023-04-23T07:19:28.533Z,100129.91
2023-04-23T07:21:58.559Z,100132.34
2023-04-23T07:24:29.417Z,100133.06
2023-04-23T07:27:01.098Z,100128.97
2023-04-23T07:29:33.609Z,100125.59
2023-04-23T07:32:14.996Z,100126.25
2023-04-23T07:34:47.053Z,100124.84
2023-04-23T07:37:26.642Z,100120.44
2023-04-23T07:39:56.977Z,100119.88
2023-04-23T07:42:27.125Z,100118.81
2023-04-23T07:44:57.295Z,100128.28
2023-04-23T07:47:31.632Z,100120.63
2023-04-23T07:50:01.639Z,100122.78
2023-04-23T07:52:31.736Z,100118.50
2023-04-23T07:55:01.961Z,100111.34
2023-04-23T07:57:32.023Z,100103.09
2023-04-23T08:00:02.575Z,100094.53
2023-04-23T08:02:47.229Z,100090.97
2023-04-23T08:05:21.394Z,100093.84
2023-04-23T08:07:51.776Z,100096.50
2023-04-23T08:10:22.398Z,100095.59
2023-04-23T08:12:52.828Z,100096.34
2023-04-23T08:15:23.154Z,100088.69
2023-04-23T08:17:55.990Z,100077.59
2023-04-23T08:20:28.995Z,100091.56
2023-04-23T08:23:00.270Z,100095.72
2023-04-23T08:25:30.545Z,100091.31
2023-04-23T08:28:01.330Z,100098.09
2023-04-23T08:30:35.219Z,100103.50
2023-04-23T08:33:08.113Z,100102.69
2023-04-23T08:35:38.428Z,100098.66
2023-04-23T08:38:12.100Z,100104.81
2023-04-23T08:40:45.115Z,100100.34
2023-04-23T08:43:21.810Z,100102.03
2023-04-23T08:45:52.528Z,100087.94
2023-04-23T08:48:25.635Z,100086.59
2023-04-23T08:50:58.120Z,100093.41
2023-04-23T08:53:39.572Z,100084.38
2023-04-23T08:56:13.932Z,100079.81
2023-04-23T08:58:45.152Z,100049.88
2023-04-23T09:01:16.613Z,100076.88
2023-04-23T09:03:50.873Z,100074.72
2023-04-23T09:06:22.881Z,100070.41
2023-04-23T09:08:56.755Z,100064.94
2023-04-23T09:11:29.740Z,100058.78
2023-04-23T09:14:02.494Z,100067.66
2023-04-23T09:16:35.726Z,100067.34
2023-04-23T09:19:10.026Z,100066.88
2023-04-23T09:21:41.710Z,100047.16
2023-04-23T09:24:15.061Z,100049.97
2023-04-23T09:26:53.841Z,100058.88
2023-04-23T09:29:26.233Z,100049.38
2023-04-23T09:32:09.112Z,100049.94
2023-04-23T09:34:42.358Z,100052.78
2023-04-23T09:37:13.518Z,100056.41
2023-04-23T09:39:43.681Z,100044.00
2023-04-23T09:42:20.704Z,100042.50
2023-04-23T09:44:59.840Z,100041.00
2023-04-23T09:47:37.344Z,100043.47
2023-04-23T09:50:17.954Z,100040.31
2023-04-23T09:52:50.456Z,100035.94
2023-04-23T09:55:40.929Z,100039.28
2023-04-23T09:58:15.926Z,100034.31
2023-04-23T10:00:46.251Z,100032.69
2023-04-23T10:03:32.118Z,100008.56
2023-04-23T10:06:05.094Z,100027.28
2023-04-23T10:08:35.641Z,100028.22
2023-04-23T10:11:19.920Z,100017.31
2023-04-23T10:13:50.690Z,100007.13
2023-04-23T10:16:28.575Z,99998.94
2023-04-23T10:19:07.438Z,100011.25
2023-04-23T10:21:52.243Z,100016.34
2023-04-23T10:24:29.038Z,100012.22
2023-04-23T10:27:02.020Z,100009.53
2023-04-23T10:29:33.854Z,100009.69
2023-04-23T10:32:05.251Z,100010.09
2023-04-23T10:34:36.457Z,100007.81
2023-04-23T10:37:09.468Z,100004.09
2023-04-23T10:39:39.873Z,100007.00
2023-04-23T10:42:11.976Z,99985.50
2023-04-23T10:44:58.076Z,99996.91
2023-04-23T10:47:31.715Z,99997.00
2023-04-23T10:50:22.802Z,100005.09
2023-04-23T10:52:57.660Z,100001.59
2023-04-23T10:55:30.218Z,99986.16
2023-04-23T10:58:02.921Z,99989.88
2023-04-23T11:00:46.595Z,99989.75
2023-04-23T11:03:35.348Z,99986.31
2023-04-23T11:06:06.006Z,99986.53
2023-04-23T11:08:39.138Z,99978.97
2023-04-23T11:11:11.242Z,99989.44
2023-04-23T11:13:56.019Z,99979.16
2023-04-23T11:16:26.957Z,99978.00
2023-04-23T11:19:03.523Z,99966.03
2023-04-23T11:22:01.724Z,99973.75
2023-04-23T11:24:37.316Z,99979.41
2023-04-23T11:27:09.235Z,99975.59
2023-04-23T11:29:41.245Z,99968.34
2023-04-23T11:32:13.717Z,99970.25
2023-04-23T11:34:45.605Z,99972.81
2023-04-23T11:37:17.650Z,99967.31
2023-04-23T11:39:51.657Z,99967.13
2023-04-23T11:42:23.360Z,99968.22
2023-04-23T11:44:53.586Z,99961.25
2023-04-23T11:47:24.209Z,99957.69
2023-04-23T11:49:54.372Z,99960.41
2023-04-23T11:52:32.058Z,99953.34
2023-04-23T11:55:10.686Z,99956.00
2023-04-23T11:57:45.075Z,99950.69
2023-04-23T12:00:18.075Z,99949.00
2023-04-23T12:02:58.248Z,99944.97
2023-04-23T12:05:33.119Z,99940.63
2023-04-23T12:08:13.473Z,99938.28
2023-04-23T12:10:52.783Z,99947.19
2023-04-23T12:13:26.329Z,99945.94
2023-04-23T12:15:59.239Z,99941.13
2023-04-23T12:18:33.164Z,99946.72
2023-04-23T12:21:08.938Z,99941.19
2023-04-23T12:23:39.377Z,99934.94
2023-04-23T12:26:17.949Z,99931.31
2023-04-23T12:28:52.859Z,99930.66
2023-04-23T12:31:24.005Z,99930.38
2023-04-23T12:34:01.277Z,99928.16
2023-04-23T12:36:33.006Z,99910.72
2023-04-23T12:39:24.862Z,99917.59
2023-04-23T12:42:01.659Z,99916.94
2023-04-23T12:44:32.458Z,99922.13
2023-04-23T12:47:05.021Z,99920.03
2023-04-23T12:49:35.852Z,99934.22
2023-04-23T12:52:07.488Z,99942.28
2023-04-23T12:54:39.381Z,99932.44
2023-04-23T12:57:15.731Z,99927.69
2023-04-23T12:59:45.788Z,99917.50
2023-04-23T13:02:16.112Z,99919.34
2023-04-23T13:04:46.402Z,99910.03
2023-04-23T13:07:19.336Z,99905.72
2023-04-23T13:09:49.398Z,99906.88
2023-04-23T13:12:22.068Z,99908.91
2023-04-23T13:14:52.728Z,99903.66
2023-04-23T13:17:23.373Z,99919.41
2023-04-23T13:19:55.794Z,99916.63
2023-04-23T13:22:29.223Z,99915.25
2023-04-23T13:24:59.844Z,99905.78
2023-04-23T13:27:38.552Z,99903.84
2023-04-23T13:30:14.382Z,99910.47
2023-04-23T13:32:45.356Z,99926.75
2023-04-23T13:35:18.321Z,99932.16
2023-04-23T13:37:48.426Z,99943.69
2023-04-23T13:40:20.936Z,99948.41
2023-04-23T13:42:55.174Z,99943.16
2023-04-23T13:45:25.376Z,99955.81
2023-04-23T13:47:55.644Z,99979.34
2023-04-23T13:50:25.958Z,99969.69
2023-04-23T13:53:12.579Z,99973.34
2023-04-23T13:55:43.973Z,99961.50
2023-04-23T13:58:16.764Z,99955.25
2023-04-23T14:00:48.456Z,99958.13
2023-04-23T14:03:20.353Z,99946.47
2023-04-23T14:05:50.836Z,99937.44
2023-04-23T14:08:20.931Z,99926.16
2023-04-23T14:10:50.944Z,99899.34
2023-04-23T14:13:27.146Z,99911.34
2023-04-23T14:15:57.542Z,99898.78
2023-04-23T14:18:30.586Z,99892.63
2023-04-23T14:21:03.804Z,99882.88
2023-04-23T14:23:52.001Z,99874.91
2023-04-23T14:29:27.394Z,99878.41
2023-04-23T14:31:58.357Z,99860.94
2023-04-23T14:34:30.719Z,99861.22
2023-04-23T14:37:00.917Z,99850.00
2023-04-23T14:39:36.897Z,99852.44
2023-04-23T14:42:07.304Z,99857.69
2023-04-23T14:44:41.260Z,99847.56
2023-04-23T14:47:12.068Z,99853.84
2023-04-23T14:49:50.093Z,99835.38
2023-04-23T14:52:20.939Z,99838.72
2023-04-23T14:54:51.069Z,99837.06
2023-04-23T14:57:21.415Z,99839.09
2023-04-23T14:59:54.343Z,99831.75
2023-04-23T15:02:27.710Z,99827.84
2023-04-23T15:05:00.313Z,99818.38
2023-04-23T15:07:31.910Z,99826.72
2023-04-23T15:10:06.452Z,99817.63
2023-04-23T15:12:57.020Z,99819.31
2023-04-23T15:15:44.437Z,99818.84
2023-04-23T15:18:17.322Z,99789.47
2023-04-23T15:20:47.488Z,99807.34
2023-04-23T15:23:21.722Z,99810.19
2023-04-23T15:25:52.463Z,99804.66
2023-04-23T15:28:27.325Z,99794.47
2023-04-23T15:31:16.039Z,99785.84
2023-04-23T15:33:46.745Z,99765.53
2023-04-23T15:36:16.961Z,99786.69
2023-04-23T15:38:47.089Z,99792.28
2023-04-23T15:41:17.464Z,99778.53
2023-04-23T15:43:49.062Z,99786.31
2023-04-23T15:46:21.938Z,99774.56
2023-04-23T15:48:52.448Z,99770.44
2023-04-23T15:51:23.409Z,99763.59
2023-04-23T15:53:53.506Z,99765.34
2023-04-23T15:56:23.600Z,99769.94
2023-04-23T15:58:53.928Z,99766.34
2023-04-23T16:01:27.685Z,99756.00
2023-04-23T16:06:33.673Z,99756.19
2023-04-23T16:09:07.406Z,99741.34
2023-04-23T16:11:38.026Z,99743.25
2023-04-23T16:14:13.220Z,99749.31
2023-04-23T16:16:46.074Z,99740.47
2023-04-23T16:19:18.316Z,99739.47
2023-04-23T16:21:50.069Z,99723.44
2023-04-23T16:24:22.316Z,99738.59
2023-04-23T16:26:56.546Z,99719.81
2023-04-23T16:29:26.791Z,99719.59
2023-04-23T16:32:03.206Z,99717.13
2023-04-23T16:34:33.268Z,99718.16
2023-04-23T16:37:05.432Z,99708.25
2023-04-23T16:39:35.451Z,99691.75
2023-04-23T16:42:05.688Z,99707.00
2023-04-23T16:44:37.292Z,99707.78
2023-04-23T16:47:10.077Z,99702.06
2023-04-23T16:49:40.254Z,99702.84
2023-04-23T16:52:10.577Z,99700.06
2023-04-23T16:57:25.560Z,99690.03
2023-04-23T16:59:59.772Z,99691.53
2023-04-23T17:02:34.905Z,99685.25
2023-04-23T17:05:06.309Z,99686.44
2023-04-23T17:07:36.415Z,99684.38
2023-04-23T17:10:08.230Z,99692.63
2023-04-23T17:12:38.602Z,99686.44
2023-04-23T17:15:10.858Z,99687.69
2023-04-23T17:17:43.735Z,99685.44
2023-04-23T17:20:14.781Z,99681.47
2023-04-23T17:22:44.835Z,99656.72
2023-04-23T17:25:15.126Z,99672.19
2023-04-23T17:27:56.437Z,99670.13
2023-04-23T17:30:29.658Z,99668.91
2023-04-23T17:33:02.679Z,99666.09
2023-04-23T17:35:46.939Z,99635.66
2023-04-23T17:38:25.007Z,99655.66
2023-04-23T17:40:56.052Z,99655.66
2023-04-23T17:43:26.033Z,99645.34
2023-04-23T17:45:58.509Z,99647.69
2023-04-23T17:48:31.228Z,99655.16
2023-04-23T17:51:05.575Z,99651.50
2023-04-23T17:53:36.610Z,99657.13
2023-04-23T17:56:08.604Z,99639.69
2023-04-23T17:58:38.802Z,99645.72
2023-04-23T18:01:10.934Z,99649.84
2023-04-23T18:03:44.415Z,99641.28
2023-04-23T18:06:16.480Z,99640.38
2023-04-23T18:08:47.554Z,99636.88
2023-04-23T18:11:20.917Z,99635.75
2023-04-23T18:13:53.728Z,99640.41
2023-04-23T18:16:24.075Z,99630.63
2023-04-23T18:18:57.449Z,99619.09
2023-04-23T18:21:30.401Z,99634.03
2023-04-23T18:24:00.636Z,99628.44
2023-04-23T18:26:34.848Z,99626.31
2023-04-23T18:29:05.153Z,99613.81
2023-04-23T18:31:36.938Z,99618.00
2023-04-23T18:34:31.666Z,99621.72
2023-04-23T18:37:08.324Z,99619.50
2023-04-23T18:39:38.833Z,99624.22
2023-04-23T18:42:09.050Z,99623.66
2023-04-23T18:44:43.087Z,99616.78
2023-04-23T18:47:15.831Z,99619.09
2023-04-23T18:49:56.588Z,99614.84
2023-04-23T18:52:26.732Z,99592.75
2023-04-23T18:54:59.882Z,99589.09
2023-04-23T18:57:32.010Z,99610.88
2023-04-23T19:00:02.169Z,99612.00
2023-04-23T19:02:36.160Z,99608.00
2023-04-23T19:05:11.595Z,99611.34
2023-04-23T19:07:42.842Z,99602.09
2023-04-23T19:10:16.558Z,99599.44
2023-04-23T19:12:46.760Z,99600.06
2023-04-23T19:15:22.617Z,99605.88
2023-04-23T19:17:53.710Z,99602.97
2023-04-23T19:20:31.216Z,99610.19
2023-04-23T19:23:05.188Z,99606.84
2023-04-23T19:25:35.262Z,99604.41
2023-04-23T19:28:06.025Z,99588.00
2023-04-23T19:30:36.535Z,99602.84
2023-04-23T19:33:09.349Z,99590.09
2023-04-23T19:35:42.087Z,99604.50
2023-04-23T19:38:14.892Z,99598.66
2023-04-23T19:40:45.325Z,99597.84
2023-04-23T19:43:15.593Z,99604.41
2023-04-23T19:45:46.643Z,99559.22
2023-04-23T19:48:16.968Z,99610.72
2023-04-23T19:50:55.446Z,99610.13
2023-04-23T19:53:28.302Z,99590.63
2023-04-23T19:56:11.842Z,99570.69
2023-04-23T19:58:42.783Z,99567.13
2023-04-23T20:01:16.242Z,99572.19
2023-04-23T20:03:48.059Z,99571.38
2023-04-23T20:06:21.268Z,99578.22
2023-04-23T20:09:09.429Z,99573.16
2023-04-23T20:11:39.780Z,99565.56
2023-04-23T20:14:19.705Z,99561.16
2023-04-23T20:16:53.064Z,99544.31
2023-04-23T20:19:25.834Z,99534.84
2023-04-23T20:21:59.276Z,99535.75
2023-04-23T20:24:33.762Z,99537.31
2023-04-23T20:27:12.630Z,99533.81
2023-04-23T20:29:42.880Z,99538.88
2023-04-23T20:32:13.677Z,99536.44
2023-04-23T20:34:43.860Z,99529.59
2023-04-23T20:37:21.815Z,99518.41
2023-04-23T20:39:52.498Z,99529.50
2023-04-23T20:42:25.814Z,99535.53
2023-04-23T20:44:58.124Z,99523.84
2023-04-23T20:47:28.463Z,99522.09
2023-04-23T20:50:01.311Z,99517.22
2023-04-23T20:52:34.714Z,99510.56
2023-04-23T20:55:07.148Z,99505.41
2023-04-23T20:57:38.617Z,99501.63
2023-04-23T21:00:12.252Z,99498.84
2023-04-23T21:02:44.996Z,99501.91
2023-04-23T21:05:16.104Z,99493.34
2023-04-23T21:07:48.683Z,99500.06
2023-04-23T21:10:18.841Z,99491.41
2023-04-23T21:12:49.515Z,99491.31
2023-04-23T21:15:20.391Z,99507.38
2023-04-23T21:17:50.754Z,99528.81
2023-04-23T21:20:20.984Z,99545.81
2023-04-23T21:22:55.398Z,99543.19
2023-04-23T21:25:26.906Z,99544.41
2023-04-23T21:27:57.262Z,99534.41
2023-04-23T21:30:39.391Z,99539.47
2023-04-23T21:33:09.797Z,99532.50
2023-04-23T21:35:40.577Z,99531.31
2023-04-23T21:38:14.317Z,99527.44
2023-04-23T21:40:44.516Z,99522.13
2023-04-23T21:43:14.905Z,99524.28
2023-04-23T21:45:47.541Z,99525.66
2023-04-23T21:48:18.101Z,99493.72
2023-04-23T21:50:48.678Z,99503.56
2023-04-23T21:53:22.754Z,99511.75
2023-04-23T21:55:52.880Z,99508.16
2023-04-23T21:58:28.095Z,99495.13
2023-04-23T22:00:58.098Z,99485.91
2023-04-23T22:03:37.484Z,99498.31
2023-04-23T22:06:09.969Z,99495.91
2023-04-23T22:08:44.950Z,99484.13
2023-04-23T22:11:17.531Z,99485.09
2023-04-23T22:13:47.843Z,99484.19
2023-04-23T22:16:28.484Z,99487.34
2023-04-23T22:19:00.664Z,99485.78
2023-04-23T22:21:31.640Z,99485.09
2023-04-23T22:24:20.465Z,99480.22
2023-04-23T22:26:53.225Z,99484.13
2023-04-23T22:29:26.202Z,99482.66
2023-04-23T22:31:56.360Z,99480.91
2023-04-23T22:34:26.711Z,99481.28
2023-04-23T22:36:56.820Z,99479.34
2023-04-23T22:39:29.431Z,99479.84
2023-04-23T22:41:59.729Z,99473.72
2023-04-23T22:44:30.592Z,99465.06
2023-04-23T22:47:00.698Z,99471.69
2023-04-23T22:49:33.335Z,99466.16
2023-04-23T22:52:11.875Z,99474.13
2023-04-23T22:54:48.013Z,99472.69
2023-04-23T22:57:18.429Z,99469.75
2023-04-23T22:59:48.817Z,99464.22
2023-04-23T23:02:20.109Z,99457.53
2023-04-23T23:04:50.523Z,99460.44
2023-04-23T23:07:22.968Z,99457.81
2023-04-23T23:09:57.645Z,99451.69
2023-04-23T23:12:28.032Z,99453.22
2023-04-23T23:14:58.129Z,99462.47
2023-04-23T23:17:28.717Z,99450.44
2023-04-23T23:19:58.690Z,99461.19
2023-04-23T23:22:29.259Z,99455.25
2023-04-23T23:25:02.321Z,99456.81
2023-04-23T23:27:32.572Z,99456.94
2023-04-23T23:30:05.911Z,99449.13
2023-04-23T23:32:36.631Z,99451.09
2023-04-23T23:35:09.805Z,99452.16
2023-04-23T23:37:39.872Z,99448.06
2023-04-23T23:40:14.532Z,99443.81
2023-04-23T23:42:44.469Z,99446.44
2023-04-23T23:45:14.815Z,99444.00
2023-04-23T23:47:49.950Z,99432.16
2023-04-23T23:50:20.241Z,99436.25
2023-04-23T23:52:50.569Z,99442.28
2023-04-23T23:55:23.849Z,99435.66
2023-04-23T23:57:54.289Z,99439.84
